Terminal Aerodrome Forecast
Issued by NWS Lake Charles, LA

Home | Current Version | Previous Version | Text Only | Print | Product List | Glossary On
Versions: 1 2 3 4 5 6 7 8 9 10 11 12 13 14 15
000
FTUS44 KLCH 281100
TAFLFT
TAF
KLFT 281129Z 2812/0112 05010KT P6SM OVC090
     FM281400 06010KT P6SM OVC050
     FM010700 07006KT P6SM SCT015 OVC025
     FM011000 06005KT P6SM SCT007 OVC015=

USA.gov is the U.S. government's official web portal to all federal, state and local government web resources and services.